Pagina principale
METAR-TAF:

METAR-TAF

Aeroporti :

Aeroporto di Bucarest-Henri Coandă

Bucarest, Romania

latitudine: 44-33N, longitudine: 026-06E, altezza: 95 m

Osservazione

Il bollettino è stato emesso 30 minuti fa, alle 23:00 UTC
Vento 4 kt da nord/nord-est
Temperature 11°C
Umidità 58%
Pressione 1025 hPa
Visibilità 10 km o più
nessuna nube inferiore a 1500 m e nessun cumulonembo

METAR: LROP 152300Z 02004KT CAVOK 11/03 Q1025 NOSIG

Ora: 02:30 (23:30 UTC)

Previsione

Il bollettino è stato emesso 6 ore e 30 minuti fa, alle 17:00 UTC
Previsione valida dal 15 alle 18 UTC al 16 alle 18 UTC
Vento 8 kt da nord-est
Visibilità 10 km o più
nessuna nube inferiore a 1500 m e nessun cumulonembo

TAF: LROP 151700Z 1518/1618 05008KT CAVOK

Osservazioni e previsioni meteorologiche di più di 4000 aeroporti (messaggi METAR e TAF).

Le stazioni disponibili sono rappresentate dai dischi gialli e rossi sulla carta.

Puntare il mouse per vedere il nome della stazione.

Clicca sopra per visualizzare le osservazioni e previsioni meteorologiche.

Per cambiare la mappa : fare clic sui pulsanti verdi con una croce nera per ingrandire, il pulsante verde con un trattino per diminuire, o sulla freccia verde per le mappe adiacenti.


METAR-TAF: